Pagrindinis puslapis
METAR-TAF:

METAR-TAF

Oro uostai :

Svolvær, Norvegija

platuma: 68-15N, ilguma: 014-40E, Aukštis: 0 m

Dabartinis oras

Ataskaita buvo paskelbta 35 minutes, ne 10:20 UTC
Vėjas 11 kt iš Pietų
Temperatūra 11°C
Drėgmė 71%
Slėgis 992 hPa
Matomumas 10 km arba daugiau
Su prošvaistėmis ne aukštis 4500 ft

METAR: ENSH 231020Z 18011KT 9999 BKN045 11/06 Q0992 RMK WIND 150FT 17014KT

Laikas: 12:55 (10:55 UTC)

Prognozė

Ataskaita buvo paskelbta 1 valandą ir 24 minutes, ne 09:31 UTC
Prognozė galioja nuo 23 metu 09 UTC su 23 metu 18 UTC
Vėjas 15 kt iš Pietų
Matomumas 10 km arba daugiau
Išsisklaidę debesys ne aukštis 1500 ft
Su prošvaistėmis ne aukštis 2500 ft
lietus
Laikinai
nuo 23 metu 09 UTC su 23 metu 18 UTC
Su prošvaistėmis ne aukštis 1200 ft, Liūtiniai kamuoliniai debesys.
lietus

TAF: ENSH 230931Z 2309/2318 19015KT 9999 -SHRA SCT015 BKN025 TEMPO 2309/2318 SHRA BKN012CB

Orai ataskaitas ir orų prognozės (METAR, TAF).

turimą stotys yra geltonos ir raudonos taškus žemėlapyje.

Perkelti pele per norėdami pamatyti stoties vardą.

Tada spustelėkite, norėdami matyti oro stebėjimo ir prognozės.

Norėdami pakeisti žemėlapį: spustelėkite ant žalios mygtukų su juodo kryžiaus žemyn,; žalią mygtuką su brūkšneliu, jei norite nutolinti; arba žalių rodyklių gretimoms žemėlapius.


METAR-TAF: